createdAt,value
2022-11-29T00:01:24.151Z,92.22
2022-11-29T00:03:51.348Z,92.29
2022-11-29T00:06:21.062Z,92.35
2022-11-29T00:08:48.393Z,92.32
2022-11-29T00:11:36.674Z,92.29
2022-11-29T00:14:06.246Z,92.28
2022-11-29T00:16:36.159Z,92.79
2022-11-29T00:19:07.231Z,92.88
2022-11-29T00:21:36.716Z,92.81
2022-11-29T00:24:06.046Z,92.59
2022-11-29T00:26:32.994Z,92.35
2022-11-29T00:29:00.741Z,92.36
2022-11-29T00:31:32.852Z,92.13
2022-11-29T00:34:04.396Z,92.41
2022-11-29T00:36:31.103Z,92.19
2022-11-29T00:38:59.137Z,92.27
2022-11-29T00:41:27.464Z,92.06
2022-11-29T00:43:55.196Z,92.33
2022-11-29T00:46:23.797Z,92.02
2022-11-29T00:48:50.334Z,92.23
2022-11-29T00:51:17.281Z,92.19
2022-11-29T00:53:44.067Z,92.20
2022-11-29T00:56:10.750Z,92.02
2022-11-29T00:58:37.440Z,91.81
2022-11-29T01:01:04.732Z,91.99
2022-11-29T01:03:31.779Z,92.35
2022-11-29T01:06:03.247Z,92.30
2022-11-29T01:08:30.298Z,92.06
2022-11-29T01:11:14.092Z,92.06
2022-11-29T01:13:44.824Z,91.94
2022-11-29T01:16:11.990Z,92.05
2022-11-29T01:18:39.095Z,92.15
2022-11-29T01:21:11.957Z,92.08
2022-11-29T01:23:39.656Z,91.83
2022-11-29T01:26:15.175Z,91.64
2022-11-29T01:28:43.065Z,91.81
2022-11-29T01:31:12.115Z,91.73
2022-11-29T01:33:43.666Z,91.84
2022-11-29T01:36:12.498Z,92.00
2022-11-29T01:38:42.343Z,92.38
2022-11-29T01:41:13.847Z,92.56
2022-11-29T01:43:59.828Z,92.16
2022-11-29T01:46:34.708Z,91.94
2022-11-29T01:49:18.131Z,91.95
2022-11-29T01:51:50.094Z,92.18
2022-11-29T01:54:17.500Z,92.01
2022-11-29T01:56:46.878Z,92.01
2022-11-29T01:59:19.439Z,92.14
2022-11-29T02:01:47.205Z,91.83
2022-11-29T02:04:15.219Z,91.94
2022-11-29T02:06:42.301Z,91.87
2022-11-29T02:09:21.300Z,91.91
2022-11-29T02:12:12.664Z,91.81
2022-11-29T02:14:51.598Z,91.83
2022-11-29T02:17:33.824Z,91.94
2022-11-29T02:20:26.515Z,92.02
2022-11-29T02:23:04.642Z,91.93
2022-11-29T02:25:40.158Z,91.97
2022-11-29T02:28:38.570Z,91.63
2022-11-29T02:31:45.469Z,91.59
2022-11-29T02:34:50.710Z,91.34
2022-11-29T02:37:46.948Z,91.65
2022-11-29T02:40:45.851Z,91.47
2022-11-29T02:43:57.915Z,91.80
2022-11-29T02:46:50.773Z,91.79
2022-11-29T02:49:58.965Z,91.64
2022-11-29T02:52:39.586Z,91.65
2022-11-29T02:55:18.966Z,91.47
2022-11-29T02:58:16.843Z,91.50
2022-11-29T03:01:23.680Z,91.67
2022-11-29T03:04:00.764Z,91.38
2022-11-29T03:06:38.236Z,91.34
2022-11-29T03:09:29.575Z,91.99
2022-11-29T03:12:11.089Z,91.72
2022-11-29T03:14:57.405Z,91.76
2022-11-29T03:17:23.723Z,91.57
2022-11-29T03:20:27.912Z,91.65
2022-11-29T03:23:22.190Z,91.75
2022-11-29T03:26:09.065Z,91.96
2022-11-29T03:28:45.950Z,91.75
2022-11-29T03:31:31.865Z,92.42
2022-11-29T03:34:13.535Z,92.01
2022-11-29T03:37:03.583Z,92.18
2022-11-29T03:40:06.795Z,92.11
2022-11-29T03:42:37.014Z,92.22
2022-11-29T03:45:03.361Z,92.54
2022-11-29T03:47:45.100Z,92.09
2022-11-29T03:50:16.398Z,92.50
2022-11-29T03:52:50.354Z,92.56
2022-11-29T03:55:47.768Z,92.39
2022-11-29T03:58:23.227Z,92.42
2022-11-29T04:00:49.559Z,92.55
2022-11-29T04:03:35.888Z,92.63
2022-11-29T04:06:18.283Z,92.46
2022-11-29T04:09:09.583Z,92.63
2022-11-29T04:11:54.843Z,92.23
2022-11-29T04:14:43.645Z,92.26
2022-11-29T04:17:28.473Z,92.12
2022-11-29T04:20:25.662Z,92.30
2022-11-29T04:23:26.846Z,92.13
2022-11-29T04:26:34.991Z,92.20
2022-11-29T04:29:23.077Z,92.21
2022-11-29T04:32:02.632Z,92.34
2022-11-29T04:34:38.158Z,92.08
2022-11-29T04:37:26.347Z,92.21
2022-11-29T04:40:04.722Z,91.88
2022-11-29T04:42:54.107Z,91.96
2022-11-29T04:45:57.859Z,92.17
2022-11-29T04:48:51.725Z,91.86
2022-11-29T04:51:53.464Z,92.10
2022-11-29T04:54:31.194Z,92.05
2022-11-29T04:57:17.608Z,91.84
2022-11-29T04:59:59.674Z,91.72
2022-11-29T05:02:36.734Z,91.96
2022-11-29T05:05:23.459Z,91.93
2022-11-29T05:08:23.891Z,92.12
2022-11-29T05:11:25.043Z,91.92
2022-11-29T05:14:10.764Z,91.94
2022-11-29T05:16:40.138Z,92.21
2022-11-29T05:19:49.958Z,92.06
2022-11-29T05:22:45.862Z,92.03
2022-11-29T05:25:31.307Z,91.93
2022-11-29T05:28:27.068Z,91.78
2022-11-29T05:30:59.653Z,91.83
2022-11-29T05:33:53.822Z,91.95
2022-11-29T05:36:42.511Z,92.01
2022-11-29T05:39:33.751Z,91.56
2022-11-29T05:42:21.378Z,91.48
2022-11-29T05:44:56.562Z,91.48
2022-11-29T05:47:31.787Z,91.57
2022-11-29T05:50:10.045Z,91.77
2022-11-29T05:52:57.757Z,91.97
2022-11-29T05:55:51.332Z,91.78
2022-11-29T05:58:33.811Z,91.44
2022-11-29T06:01:25.501Z,91.40
2022-11-29T06:03:59.971Z,91.13
2022-11-29T06:06:49.688Z,91.88
2022-11-29T06:09:29.099Z,91.67
2022-11-29T06:12:02.426Z,91.89
2022-11-29T06:15:06.522Z,91.76
2022-11-29T06:18:22.078Z,91.68
2022-11-29T06:20:57.218Z,91.45
2022-11-29T06:23:57.463Z,91.90
2022-11-29T06:26:41.879Z,91.67
2022-11-29T06:29:42.205Z,91.81
2022-11-29T06:32:26.715Z,91.78
2022-11-29T06:35:09.353Z,92.02
2022-11-29T06:37:40.565Z,91.80
2022-11-29T06:40:14.114Z,91.82
2022-11-29T06:42:40.572Z,91.94
2022-11-29T06:45:08.339Z,92.03
2022-11-29T06:47:46.667Z,91.73
2022-11-29T06:50:33.400Z,91.37
2022-11-29T06:53:14.659Z,91.71
2022-11-29T06:55:56.445Z,91.49
2022-11-29T06:58:44.769Z,91.95
2022-11-29T07:01:46.769Z,91.60
2022-11-29T07:04:30.856Z,91.09
2022-11-29T07:06:57.859Z,91.81
2022-11-29T07:09:30.459Z,91.82
2022-11-29T07:11:57.194Z,91.54
2022-11-29T07:14:23.894Z,91.82
2022-11-29T07:17:05.393Z,91.84
2022-11-29T07:19:47.084Z,91.90
2022-11-29T07:22:36.344Z,91.96
2022-11-29T07:25:47.109Z,92.05
2022-11-29T07:28:36.698Z,92.12
2022-11-29T07:31:14.476Z,92.08
2022-11-29T07:34:22.050Z,92.23
2022-11-29T07:37:11.783Z,92.13
2022-11-29T07:39:51.918Z,91.82
2022-11-29T07:42:35.291Z,91.90
2022-11-29T07:45:22.576Z,92.24
2022-11-29T07:47:50.095Z,92.39
2022-11-29T07:50:16.559Z,92.09
2022-11-29T07:52:43.357Z,92.22
2022-11-29T07:55:21.503Z,92.43
2022-11-29T07:57:49.270Z,92.40
2022-11-29T08:00:18.179Z,92.49
2022-11-29T08:02:45.812Z,92.56
2022-11-29T08:05:13.151Z,92.43
2022-11-29T08:07:40.801Z,92.52
2022-11-29T08:10:10.915Z,92.42
2022-11-29T08:12:42.764Z,92.49
2022-11-29T08:15:09.538Z,92.45
2022-11-29T08:17:38.172Z,92.22
2022-11-29T08:20:06.205Z,92.39
2022-11-29T08:22:32.676Z,92.31
2022-11-29T08:24:59.897Z,92.16
2022-11-29T08:27:28.305Z,92.18
2022-11-29T08:29:54.585Z,92.42
2022-11-29T08:32:21.121Z,92.64
2022-11-29T08:34:48.156Z,92.36
2022-11-29T08:37:14.748Z,92.34
2022-11-29T08:39:41.292Z,92.62
2022-11-29T08:42:07.683Z,92.69
2022-11-29T08:44:34.087Z,92.49
2022-11-29T08:47:19.223Z,92.34
2022-11-29T08:50:03.567Z,92.68
2022-11-29T08:52:54.608Z,92.59
2022-11-29T08:55:23.782Z,92.77
2022-11-29T08:57:51.137Z,92.72
2022-11-29T09:00:18.962Z,92.47
2022-11-29T09:02:45.986Z,92.12
2022-11-29T09:05:12.932Z,92.35
2022-11-29T09:07:39.535Z,92.55
2022-11-29T09:10:08.347Z,92.61
2022-11-29T09:12:36.483Z,92.65
2022-11-29T09:15:05.905Z,92.65
2022-11-29T09:17:32.388Z,92.89
2022-11-29T09:19:58.823Z,92.64
2022-11-29T09:22:25.342Z,92.81
2022-11-29T09:24:51.816Z,93.34
2022-11-29T09:27:18.511Z,93.26
2022-11-29T09:29:44.948Z,93.25
2022-11-29T09:32:11.457Z,93.24
2022-11-29T09:34:37.896Z,93.36
2022-11-29T09:37:05.193Z,93.37
2022-11-29T09:39:31.853Z,93.54
2022-11-29T09:41:58.290Z,93.73
2022-11-29T09:44:49.468Z,93.61
2022-11-29T09:47:18.486Z,93.41
2022-11-29T09:50:16.493Z,93.65
2022-11-29T09:52:45.935Z,93.55
2022-11-29T09:55:33.754Z,93.30
2022-11-29T09:58:03.791Z,93.45
2022-11-29T10:00:37.213Z,93.32
2022-11-29T10:03:13.751Z,93.56
2022-11-29T10:05:49.720Z,93.40
2022-11-29T10:08:51.283Z,93.35
2022-11-29T10:11:24.051Z,93.51
2022-11-29T10:13:54.411Z,92.89
2022-11-29T10:16:50.916Z,92.96
2022-11-29T10:19:36.109Z,92.96
2022-11-29T10:22:07.517Z,93.08
2022-11-29T10:24:34.351Z,93.03
2022-11-29T10:27:01.781Z,93.09
2022-11-29T10:29:28.526Z,93.09
2022-11-29T10:31:56.714Z,93.06
2022-11-29T10:34:25.096Z,92.99
2022-11-29T10:36:59.642Z,92.88
2022-11-29T10:39:37.267Z,92.91
2022-11-29T10:42:06.515Z,92.75
2022-11-29T10:44:33.697Z,92.76
2022-11-29T10:47:09.249Z,93.13
2022-11-29T10:49:37.824Z,92.73
2022-11-29T10:52:05.512Z,92.78
2022-11-29T10:54:39.935Z,92.63
2022-11-29T10:57:16.506Z,92.76
2022-11-29T10:59:58.927Z,93.04
2022-11-29T11:02:25.641Z,92.90
2022-11-29T11:04:52.141Z,93.07
2022-11-29T11:07:33.276Z,92.72
2022-11-29T11:10:00.447Z,92.62
2022-11-29T11:12:32.396Z,92.56
2022-11-29T11:15:28.187Z,92.52
2022-11-29T11:17:58.303Z,92.35
2022-11-29T11:20:27.312Z,92.19
2022-11-29T11:23:06.479Z,91.97
2022-11-29T11:25:37.076Z,91.88
2022-11-29T11:28:25.337Z,91.54
2022-11-29T11:30:54.495Z,91.39
2022-11-29T11:33:34.019Z,91.25
2022-11-29T11:36:14.364Z,91.38
2022-11-29T11:38:55.246Z,90.99
2022-11-29T11:41:51.201Z,91.09
2022-11-29T11:44:53.620Z,90.70
2022-11-29T11:47:27.277Z,90.40
2022-11-29T11:50:03.420Z,90.49
2022-11-29T11:52:53.256Z,90.07
2022-11-29T11:55:54.404Z,89.93
2022-11-29T11:58:30.539Z,89.32
2022-11-29T12:01:14.968Z,88.98
2022-11-29T12:03:52.603Z,88.83
2022-11-29T12:06:21.934Z,88.39
2022-11-29T12:08:49.317Z,88.11
2022-11-29T12:11:18.460Z,88.00
2022-11-29T12:13:51.959Z,87.45
2022-11-29T12:16:28.294Z,87.30
2022-11-29T12:19:07.013Z,87.10
2022-11-29T12:21:40.500Z,87.19
2022-11-29T12:24:32.533Z,87.41
2022-11-29T12:27:04.304Z,87.69
2022-11-29T12:29:33.725Z,87.47
2022-11-29T12:32:30.954Z,87.21
2022-11-29T12:35:19.175Z,87.42
2022-11-29T12:38:16.651Z,87.48
2022-11-29T12:41:22.458Z,87.54
2022-11-29T12:44:15.672Z,87.41
2022-11-29T12:46:50.419Z,87.20
2022-11-29T12:49:31.937Z,87.21
2022-11-29T12:52:01.285Z,87.31
2022-11-29T12:54:43.850Z,86.88
2022-11-29T12:57:19.493Z,87.24
2022-11-29T13:00:12.830Z,87.03
2022-11-29T13:02:48.763Z,87.27
2022-11-29T13:05:41.170Z,87.28
2022-11-29T13:08:28.928Z,86.88
2022-11-29T13:11:17.171Z,86.90
2022-11-29T13:13:45.892Z,87.26
2022-11-29T13:16:52.061Z,87.57
2022-11-29T13:19:21.951Z,87.59
2022-11-29T13:22:25.727Z,87.46
2022-11-29T13:24:57.460Z,87.61
2022-11-29T13:27:35.803Z,87.81
2022-11-29T13:30:02.444Z,88.23
2022-11-29T13:32:36.195Z,88.24
2022-11-29T13:35:20.669Z,88.30
2022-11-29T13:37:56.325Z,88.86
2022-11-29T13:40:37.284Z,88.70
2022-11-29T13:43:30.477Z,88.89
2022-11-29T13:46:22.848Z,89.13
2022-11-29T13:48:52.384Z,89.27
2022-11-29T13:51:21.787Z,88.92
2022-11-29T13:53:49.421Z,89.34
2022-11-29T13:56:29.564Z,89.50
2022-11-29T13:58:58.601Z,89.36
2022-11-29T14:01:26.745Z,89.34
2022-11-29T14:04:06.866Z,89.67
2022-11-29T14:06:36.519Z,89.51
2022-11-29T14:09:23.094Z,89.56
2022-11-29T14:12:36.944Z,89.82
2022-11-29T14:15:16.371Z,89.72
2022-11-29T14:17:51.799Z,89.75
2022-11-29T14:20:28.474Z,90.21
2022-11-29T14:23:04.108Z,90.31
2022-11-29T14:25:51.041Z,90.26
2022-11-29T14:28:18.287Z,90.57
2022-11-29T14:30:46.982Z,90.28
2022-11-29T14:33:13.340Z,91.01
2022-11-29T14:35:47.352Z,90.31
2022-11-29T14:38:46.464Z,90.58
2022-11-29T14:41:43.948Z,90.40
2022-11-29T14:44:27.925Z,90.40
2022-11-29T14:47:06.799Z,90.35
2022-11-29T14:49:44.519Z,90.61
2022-11-29T14:52:13.899Z,90.62
2022-11-29T14:55:00.526Z,90.77
2022-11-29T14:57:55.030Z,90.63
2022-11-29T15:00:26.567Z,90.93
2022-11-29T15:02:56.164Z,90.77
2022-11-29T15:05:32.299Z,90.77
2022-11-29T15:08:14.026Z,91.02
2022-11-29T15:10:44.799Z,91.38
2022-11-29T15:13:23.599Z,90.91
2022-11-29T15:16:23.006Z,91.08
2022-11-29T15:19:24.158Z,91.48
2022-11-29T15:22:07.302Z,91.17
2022-11-29T15:25:05.059Z,91.41
2022-11-29T15:27:32.753Z,91.55
2022-11-29T15:30:18.887Z,91.12
2022-11-29T15:32:46.170Z,91.17
2022-11-29T15:35:21.487Z,91.50
2022-11-29T15:37:49.635Z,91.41
2022-11-29T15:40:41.137Z,91.56
2022-11-29T15:43:26.201Z,91.40
2022-11-29T15:45:55.443Z,91.22
2022-11-29T15:48:26.323Z,91.10
2022-11-29T15:50:55.563Z,91.48
2022-11-29T15:53:48.124Z,91.41
2022-11-29T15:56:24.564Z,91.58
2022-11-29T15:58:59.419Z,91.65
2022-11-29T16:01:25.998Z,91.63
2022-11-29T16:03:55.164Z,91.48
2022-11-29T16:06:40.040Z,91.72
2022-11-29T16:09:14.685Z,91.32
2022-11-29T16:11:41.389Z,91.67
2022-11-29T16:14:10.484Z,91.71
2022-11-29T16:16:41.863Z,91.94
2022-11-29T16:19:16.899Z,91.66
2022-11-29T16:21:43.678Z,91.66
2022-11-29T16:24:21.724Z,91.68
2022-11-29T16:26:50.184Z,91.72
2022-11-29T16:29:28.398Z,91.87
2022-11-29T16:31:55.290Z,91.83
2022-11-29T16:34:30.467Z,91.42
2022-11-29T16:37:06.462Z,91.72
2022-11-29T16:39:38.410Z,91.58
2022-11-29T16:42:21.929Z,91.58
2022-11-29T16:45:35.025Z,91.92
2022-11-29T16:48:13.879Z,91.52
2022-11-29T16:50:40.344Z,91.99
2022-11-29T16:53:35.100Z,91.99
2022-11-29T16:56:02.839Z,92.04
2022-11-29T16:58:29.388Z,92.12
2022-11-29T17:00:55.955Z,91.90
2022-11-29T17:03:22.609Z,91.91
2022-11-29T17:05:50.088Z,92.14
2022-11-29T17:08:19.549Z,92.04
2022-11-29T17:10:46.088Z,92.13
2022-11-29T17:13:12.595Z,92.03
2022-11-29T17:15:39.019Z,92.10
2022-11-29T17:18:05.535Z,92.34
2022-11-29T17:20:31.999Z,92.18
2022-11-29T17:22:58.395Z,92.30
2022-11-29T17:25:24.789Z,92.42
2022-11-29T17:27:51.246Z,92.38
2022-11-29T17:30:17.962Z,92.00
2022-11-29T17:32:44.402Z,92.08
2022-11-29T17:35:10.849Z,92.38
2022-11-29T17:37:37.290Z,92.72
2022-11-29T17:40:04.234Z,92.40
2022-11-29T17:42:30.645Z,92.08
2022-11-29T17:44:57.065Z,92.32
2022-11-29T17:47:23.492Z,92.86
2022-11-29T17:49:49.867Z,92.86
2022-11-29T17:52:16.385Z,93.02
2022-11-29T17:54:42.844Z,92.91
2022-11-29T17:57:09.340Z,93.13
2022-11-29T17:59:35.763Z,93.07
2022-11-29T18:02:03.771Z,93.10
2022-11-29T18:04:30.253Z,93.20
2022-11-29T18:06:56.672Z,93.80
2022-11-29T18:09:23.159Z,94.66
2022-11-29T18:11:50.312Z,93.58
2022-11-29T18:14:20.728Z,93.62
2022-11-29T18:16:47.435Z,93.30
2022-11-29T18:19:17.090Z,92.68
2022-11-29T18:21:43.712Z,92.31
2022-11-29T18:24:10.324Z,91.19
2022-11-29T18:26:38.013Z,91.29
2022-11-29T18:29:05.981Z,90.99
2022-11-29T18:31:35.009Z,90.65
2022-11-29T18:34:06.855Z,90.74
2022-11-29T18:36:35.287Z,90.08
2022-11-29T18:39:04.894Z,89.60
2022-11-29T18:41:32.184Z,89.47
2022-11-29T18:44:01.020Z,89.66
2022-11-29T18:46:32.804Z,88.76
2022-11-29T18:49:00.892Z,88.22
2022-11-29T18:51:29.158Z,88.50
2022-11-29T18:53:56.624Z,88.14
2022-11-29T18:56:24.935Z,88.19
2022-11-29T18:58:58.583Z,87.63
2022-11-29T19:01:27.459Z,87.67
2022-11-29T19:03:55.794Z,87.40
2022-11-29T19:06:37.347Z,87.77
2022-11-29T19:09:07.460Z,87.19
2022-11-29T19:11:34.451Z,87.14
2022-11-29T19:14:03.985Z,87.10
2022-11-29T19:16:33.775Z,86.79
2022-11-29T19:19:01.333Z,86.88
2022-11-29T19:21:29.870Z,86.75
2022-11-29T19:24:01.897Z,86.53
2022-11-29T19:26:30.380Z,86.37
2022-11-29T19:28:57.095Z,85.21
2022-11-29T19:31:26.802Z,85.74
2022-11-29T19:33:54.607Z,85.68
2022-11-29T19:36:29.576Z,85.81
2022-11-29T19:38:56.834Z,85.99
2022-11-29T19:41:34.024Z,85.91
2022-11-29T19:44:03.932Z,85.52
2022-11-29T19:46:50.643Z,85.91
2022-11-29T19:49:17.154Z,86.03
2022-11-29T19:51:45.800Z,86.12
2022-11-29T19:54:12.728Z,85.77
2022-11-29T19:56:39.651Z,85.83
2022-11-29T19:59:07.607Z,85.55
2022-11-29T20:01:40.896Z,85.89
2022-11-29T20:04:11.042Z,85.97
2022-11-29T20:06:37.917Z,85.99
2022-11-29T20:09:04.771Z,85.99
2022-11-29T20:11:31.241Z,85.49
2022-11-29T20:14:02.701Z,85.78
2022-11-29T20:16:38.106Z,85.76
2022-11-29T20:19:12.328Z,86.17
2022-11-29T20:21:45.459Z,85.95
2022-11-29T20:24:13.875Z,86.22
2022-11-29T20:26:40.978Z,86.09
2022-11-29T20:29:08.767Z,85.78
2022-11-29T20:31:37.282Z,85.85
2022-11-29T20:34:03.889Z,85.65
2022-11-29T20:37:07.484Z,85.66
2022-11-29T20:39:50.251Z,85.65
2022-11-29T20:42:34.767Z,85.63
2022-11-29T20:45:05.820Z,85.61
2022-11-29T20:47:55.734Z,85.89
2022-11-29T20:50:26.322Z,86.15
2022-11-29T20:53:20.712Z,85.76
2022-11-29T20:55:48.808Z,86.26
2022-11-29T20:58:16.133Z,85.58
2022-11-29T21:00:42.604Z,85.86
2022-11-29T21:03:13.364Z,85.91
2022-11-29T21:05:39.950Z,85.50
2022-11-29T21:08:08.255Z,86.19
2022-11-29T21:10:34.997Z,85.79
2022-11-29T21:13:03.237Z,86.31
2022-11-29T21:15:34.521Z,86.16
2022-11-29T21:18:01.232Z,86.22
2022-11-29T21:20:27.999Z,86.58
2022-11-29T21:23:45.008Z,86.23
2022-11-29T21:26:19.167Z,86.00
2022-11-29T21:29:12.033Z,86.30
2022-11-29T21:31:38.791Z,86.27
2022-11-29T21:34:05.332Z,86.21
2022-11-29T21:36:31.911Z,86.42
2022-11-29T21:39:02.247Z,86.53
2022-11-29T21:41:30.128Z,86.08
2022-11-29T21:44:12.033Z,86.12
2022-11-29T21:46:38.568Z,86.33
2022-11-29T21:49:05.275Z,86.50
2022-11-29T21:51:31.745Z,86.38
2022-11-29T21:53:58.208Z,86.11
2022-11-29T21:56:25.304Z,85.97
2022-11-29T21:58:51.871Z,86.25
2022-11-29T22:01:19.991Z,86.30
2022-11-29T22:03:47.226Z,86.60
2022-11-29T22:06:18.510Z,86.45
2022-11-29T22:08:45.417Z,86.55
2022-11-29T22:11:14.866Z,86.45
2022-11-29T22:14:02.273Z,86.62
2022-11-29T22:16:29.997Z,86.70
2022-11-29T22:18:57.768Z,86.86
2022-11-29T22:21:24.588Z,86.70
2022-11-29T22:23:53.665Z,86.82
2022-11-29T22:26:20.547Z,86.35
2022-11-29T22:28:46.972Z,86.40
2022-11-29T22:31:13.611Z,86.98
2022-11-29T22:33:40.214Z,86.44
2022-11-29T22:36:09.098Z,86.40
2022-11-29T22:38:35.728Z,86.40
2022-11-29T22:41:04.415Z,86.06
2022-11-29T22:43:32.191Z,86.17
2022-11-29T22:46:17.200Z,86.20
2022-11-29T22:48:46.098Z,86.40
2022-11-29T22:51:18.253Z,86.04
2022-11-29T22:53:53.395Z,85.90
2022-11-29T22:56:20.716Z,86.10
2022-11-29T22:58:47.344Z,85.78
2022-11-29T23:01:16.697Z,85.57
2022-11-29T23:03:45.428Z,85.87
2022-11-29T23:06:15.113Z,86.25
2022-11-29T23:08:42.597Z,86.37
2022-11-29T23:11:12.176Z,86.22
2022-11-29T23:13:40.421Z,86.33
2022-11-29T23:16:09.914Z,86.31
2022-11-29T23:18:36.770Z,85.67
2022-11-29T23:21:11.541Z,86.19
2022-11-29T23:23:38.660Z,86.02
2022-11-29T23:26:07.116Z,86.21
2022-11-29T23:28:34.267Z,85.85
2022-11-29T23:31:01.028Z,86.18
2022-11-29T23:33:27.723Z,86.12
2022-11-29T23:36:02.786Z,86.24
2022-11-29T23:38:30.114Z,86.21
2022-11-29T23:40:57.331Z,85.71
2022-11-29T23:43:37.283Z,85.69
2022-11-29T23:46:13.679Z,86.27
2022-11-29T23:48:40.536Z,86.71
2022-11-29T23:51:07.638Z,86.21
2022-11-29T23:53:34.125Z,86.65
2022-11-29T23:56:03.587Z,85.87
2022-11-29T23:58:31.050Z,86.10
